This is the latest recevied weather packets stored in our database for station/object CE4ERM-13. If no packets are shown the sender has not sent any weather packets the latest 10 day(s).
| Time | Temp. | Humidity | Pressure | Rain* | Wind** | Luminosity | Snow |
|---|---|---|---|---|---|---|---|
| 1777923038 | 24.44° C | 26% | 1013.3 hPa | - | - | - | - |
| 1777922877 | 30.56° C | 20% | 1013.4 hPa | - | - | - | - |
| 1777922277 | 29.44° C | 21% | 1017.3 hPa | - | - | - | - |
| 1777921237 | 23.89° C | 28% | 1018.7 hPa | - | - | - | - |
| 1777921075 | 30° C | 20% | 1015.9 hPa | - | - | - | - |
| 1777920474 | 31.11° C | 18% | 1016.2 hPa | - | - | - | - |
| 1777919873 | 28.89° C | 21% | 1016.6 hPa | - | - | - | - |
| 1777919437 | 23.33° C | 28% | 1018.4 hPa | - | - | - | - |
| 1777919273 | 29.44° C | 20% | 1015.7 hPa | - | - | - | - |
| 1777918792 | 28.89° C | 21% | 1016 hPa | - | - | - | - |
| 1777918672 | 28.89° C | 21% | 1016 hPa | - | - | - | - |
| 1777918072 | 28.89° C | 21% | 1016 hPa | - | - | - | - |
| 1777917636 | 23.33° C | 29% | 1017.4 hPa | - | - | - | - |
| 1777917472 | 27.78° C | 22% | 1017 hPa | - | - | - | - |
| 1777916872 | 28.33° C | 22% | 1016.7 hPa | - | - | - | - |
| 1777916353 | 28.89° C | 21% | 1015 hPa | - | - | - | - |
| 1777916271 | 28.89° C | 21% | 1015 hPa | - | - | - | - |
| 1777915671 | 28.33° C | 23% | 1017.8 hPa | - | - | - | - |
| 1777914469 | 28.89° C | 21% | 1016.7 hPa | - | - | - | - |
| 1777913868 | 29.44° C | 20% | 1015.8 hPa | - | - | - | - |
| 1777913267 | 28.33° C | 21% | 1016.1 hPa | - | - | - | - |
| 1777912667 | 28.89° C | 21% | 1014.4 hPa | - | - | - | - |
| 1777912066 | 28.89° C | 21% | 1017.6 hPa | - | - | - | - |
| 1777910865 | 28.89° C | 20% | 1018.7 hPa | - | - | - | - |
| 1777910460 | 28.33° C | 20% | 1017.5 hPa | - | - | - | - |
* Rain since midnight (hover to see other rain measurements)
** Current wind speed in m/s (hover to see current wind gust speed)